Terminal Aerodrome Forecast
Issued by NWS

Home | Current Version | Previous Version | Text Only | Print | Product List | Glossary On
Versions: 1 2 3 4 5 6 7 8 9 10 11 12 13 14 15 16 17 18 19 20 21 22 23 24 25 26 27 28 29 30 31 32 33 34 35 36
000
FTUS45 KTWC 161100 RRA
TAFOLS
TAF
KOLS 161140Z 1612/1712 VRB04KT 5SM -SHRA BR SCT060 BKN090
     FM161300 11013KT P6SM SCT060 BKN090
     FM161700 13011KT P6SM -SHRA BKN050 BKN080
      TEMPO 1622/1624 -TSRA BKN040 OVC060CB
     FM170000 14009KT P6SM -SHRA BKN040 OVC070=

USA.gov is the U.S. government's official web portal to all federal, state and local government web resources and services.